sensor_id;sensor_type;location;lat;lon;timestamp;P1;durP1;ratioP1;P2;durP2;ratioP2
35689;SDS011;26977;44.830;-0.674;2022-08-19T00:00:24;12.40;;;4.82;;
35689;SDS011;26977;44.830;-0.674;2022-08-19T00:02:49;13.20;;;5.03;;
35689;SDS011;26977;44.830;-0.674;2022-08-19T00:05:15;10.90;;;4.90;;
35689;SDS011;26977;44.830;-0.674;2022-08-19T00:07:42;7.82;;;4.47;;
35689;SDS011;26977;44.830;-0.674;2022-08-19T00:10:09;10.70;;;4.85;;
35689;SDS011;26977;44.830;-0.674;2022-08-19T00:12:35;13.02;;;5.28;;
35689;SDS011;26977;44.830;-0.674;2022-08-19T00:15:03;10.68;;;4.90;;
35689;SDS011;26977;44.830;-0.674;2022-08-19T00:17:36;13.85;;;5.20;;
35689;SDS011;26977;44.830;-0.674;2022-08-19T00:20:03;11.25;;;5.28;;
35689;SDS011;26977;44.830;-0.674;2022-08-19T00:22:29;11.88;;;4.90;;
35689;SDS011;26977;44.830;-0.674;2022-08-19T00:24:55;12.25;;;5.40;;
35689;SDS011;26977;44.830;-0.674;2022-08-19T00:27:20;13.13;;;5.25;;
35689;SDS011;26977;44.830;-0.674;2022-08-19T00:29:46;18.92;;;5.22;;
35689;SDS011;26977;44.830;-0.674;2022-08-19T00:32:12;14.07;;;5.25;;
35689;SDS011;26977;44.830;-0.674;2022-08-19T00:34:37;14.38;;;5.38;;
35689;SDS011;26977;44.830;-0.674;2022-08-19T00:37:03;14.55;;;5.28;;
35689;SDS011;26977;44.830;-0.674;2022-08-19T00:39:29;15.30;;;5.18;;
35689;SDS011;26977;44.830;-0.674;2022-08-19T00:41:55;9.75;;;5.00;;
35689;SDS011;26977;44.830;-0.674;2022-08-19T00:44:23;14.45;;;5.68;;
35689;SDS011;26977;44.830;-0.674;2022-08-19T00:46:53;16.67;;;5.75;;
35689;SDS011;26977;44.830;-0.674;2022-08-19T00:49:53;11.27;;;5.60;;
35689;SDS011;26977;44.830;-0.674;2022-08-19T00:52:30;11.27;;;5.18;;
35689;SDS011;26977;44.830;-0.674;2022-08-19T00:54:59;10.95;;;5.45;;
35689;SDS011;26977;44.830;-0.674;2022-08-19T00:57:28;10.30;;;5.53;;
35689;SDS011;26977;44.830;-0.674;2022-08-19T00:59:59;15.00;;;5.47;;
35689;SDS011;26977;44.830;-0.674;2022-08-19T01:02:27;12.13;;;5.93;;
35689;SDS011;26977;44.830;-0.674;2022-08-19T01:04:54;13.77;;;5.45;;
35689;SDS011;26977;44.830;-0.674;2022-08-19T01:07:20;15.05;;;5.63;;
35689;SDS011;26977;44.830;-0.674;2022-08-19T01:09:46;11.88;;;6.32;;
35689;SDS011;26977;44.830;-0.674;2022-08-19T01:12:12;10.20;;;5.53;;
35689;SDS011;26977;44.830;-0.674;2022-08-19T01:14:38;14.20;;;5.95;;
35689;SDS011;26977;44.830;-0.674;2022-08-19T01:17:05;9.70;;;5.65;;
35689;SDS011;26977;44.830;-0.674;2022-08-19T01:19:37;19.67;;;5.72;;
35689;SDS011;26977;44.830;-0.674;2022-08-19T01:22:08;15.02;;;5.95;;
35689;SDS011;26977;44.830;-0.674;2022-08-19T01:24:53;17.73;;;7.13;;
35689;SDS011;26977;44.830;-0.674;2022-08-19T01:27:19;14.35;;;6.43;;
35689;SDS011;26977;44.830;-0.674;2022-08-19T01:29:45;14.73;;;5.75;;
35689;SDS011;26977;44.830;-0.674;2022-08-19T01:32:12;13.30;;;6.65;;
35689;SDS011;26977;44.830;-0.674;2022-08-19T01:34:40;14.05;;;6.78;;
35689;SDS011;26977;44.830;-0.674;2022-08-19T01:37:10;19.00;;;6.50;;
35689;SDS011;26977;44.830;-0.674;2022-08-19T01:39:37;17.30;;;6.60;;
35689;SDS011;26977;44.830;-0.674;2022-08-19T01:42:05;14.93;;;7.60;;
35689;SDS011;26977;44.830;-0.674;2022-08-19T01:44:32;18.10;;;6.63;;
35689;SDS011;26977;44.830;-0.674;2022-08-19T01:46:58;14.85;;;7.00;;
35689;SDS011;26977;44.830;-0.674;2022-08-19T01:49:24;12.80;;;6.72;;
35689;SDS011;26977;44.830;-0.674;2022-08-19T01:51:51;14.93;;;6.30;;
35689;SDS011;26977;44.830;-0.674;2022-08-19T01:54:19;13.02;;;6.85;;
35689;SDS011;26977;44.830;-0.674;2022-08-19T01:56:46;14.90;;;6.95;;
35689;SDS011;26977;44.830;-0.674;2022-08-19T01:59:14;15.73;;;7.15;;
35689;SDS011;26977;44.830;-0.674;2022-08-19T02:01:43;14.25;;;6.47;;
35689;SDS011;26977;44.830;-0.674;2022-08-19T02:04:09;16.63;;;6.93;;
35689;SDS011;26977;44.830;-0.674;2022-08-19T02:06:35;14.20;;;6.43;;
35689;SDS011;26977;44.830;-0.674;2022-08-19T02:09:02;12.65;;;7.05;;
35689;SDS011;26977;44.830;-0.674;2022-08-19T02:11:31;15.27;;;7.43;;
35689;SDS011;26977;44.830;-0.674;2022-08-19T02:13:59;18.30;;;8.82;;
35689;SDS011;26977;44.830;-0.674;2022-08-19T02:16:27;14.82;;;7.50;;
35689;SDS011;26977;44.830;-0.674;2022-08-19T02:18:53;16.27;;;7.38;;
35689;SDS011;26977;44.830;-0.674;2022-08-19T02:21:20;14.32;;;7.32;;
35689;SDS011;26977;44.830;-0.674;2022-08-19T02:23:47;16.17;;;8.10;;
35689;SDS011;26977;44.830;-0.674;2022-08-19T02:26:14;13.32;;;7.05;;
35689;SDS011;26977;44.830;-0.674;2022-08-19T02:28:40;13.88;;;7.20;;
35689;SDS011;26977;44.830;-0.674;2022-08-19T02:31:14;18.10;;;6.70;;
35689;SDS011;26977;44.830;-0.674;2022-08-19T02:33:42;12.65;;;6.65;;
35689;SDS011;26977;44.830;-0.674;2022-08-19T02:36:09;12.63;;;6.78;;
35689;SDS011;26977;44.830;-0.674;2022-08-19T02:38:36;16.08;;;7.25;;
35689;SDS011;26977;44.830;-0.674;2022-08-19T02:41:12;13.15;;;6.63;;
35689;SDS011;26977;44.830;-0.674;2022-08-19T02:43:39;16.52;;;7.13;;
35689;SDS011;26977;44.830;-0.674;2022-08-19T02:46:13;12.90;;;6.85;;
35689;SDS011;26977;44.830;-0.674;2022-08-19T02:48:49;19.63;;;7.63;;
35689;SDS011;26977;44.830;-0.674;2022-08-19T02:51:20;16.85;;;7.68;;
35689;SDS011;26977;44.830;-0.674;2022-08-19T02:53:51;14.20;;;7.22;;
35689;SDS011;26977;44.830;-0.674;2022-08-19T02:56:18;18.08;;;7.25;;
35689;SDS011;26977;44.830;-0.674;2022-08-19T02:58:44;14.82;;;7.63;;
35689;SDS011;26977;44.830;-0.674;2022-08-19T03:01:11;14.95;;;7.20;;
35689;SDS011;26977;44.830;-0.674;2022-08-19T03:03:45;19.30;;;6.93;;
35689;SDS011;26977;44.830;-0.674;2022-08-19T03:06:12;18.27;;;8.00;;
35689;SDS011;26977;44.830;-0.674;2022-08-19T03:08:40;17.15;;;7.53;;
35689;SDS011;26977;44.830;-0.674;2022-08-19T03:11:19;16.73;;;7.60;;
35689;SDS011;26977;44.830;-0.674;2022-08-19T03:13:47;18.50;;;7.65;;
35689;SDS011;26977;44.830;-0.674;2022-08-19T03:16:19;15.15;;;7.72;;
35689;SDS011;26977;44.830;-0.674;2022-08-19T03:18:46;16.60;;;7.82;;
35689;SDS011;26977;44.830;-0.674;2022-08-19T03:21:19;17.92;;;8.10;;
35689;SDS011;26977;44.830;-0.674;2022-08-19T03:23:48;22.42;;;9.02;;
35689;SDS011;26977;44.830;-0.674;2022-08-19T03:26:15;15.55;;;7.97;;
35689;SDS011;26977;44.830;-0.674;2022-08-19T03:28:42;18.23;;;8.10;;
35689;SDS011;26977;44.830;-0.674;2022-08-19T03:31:12;19.40;;;7.97;;
35689;SDS011;26977;44.830;-0.674;2022-08-19T03:33:39;20.33;;;7.90;;
35689;SDS011;26977;44.830;-0.674;2022-08-19T03:38:39;18.88;;;7.00;;
35689;SDS011;26977;44.830;-0.674;2022-08-19T03:41:10;16.85;;;7.32;;
35689;SDS011;26977;44.830;-0.674;2022-08-19T03:43:39;15.88;;;7.53;;
35689;SDS011;26977;44.830;-0.674;2022-08-19T03:46:07;13.68;;;7.60;;
35689;SDS011;26977;44.830;-0.674;2022-08-19T03:48:34;19.73;;;7.65;;
35689;SDS011;26977;44.830;-0.674;2022-08-19T03:51:02;14.85;;;7.30;;
35689;SDS011;26977;44.830;-0.674;2022-08-19T03:53:28;15.20;;;7.40;;
35689;SDS011;26977;44.830;-0.674;2022-08-19T03:55:55;16.30;;;7.65;;
35689;SDS011;26977;44.830;-0.674;2022-08-19T03:58:24;19.75;;;7.53;;
35689;SDS011;26977;44.830;-0.674;2022-08-19T04:00:50;12.27;;;7.47;;
35689;SDS011;26977;44.830;-0.674;2022-08-19T04:03:16;19.05;;;7.20;;
35689;SDS011;26977;44.830;-0.674;2022-08-19T04:05:43;12.32;;;6.90;;
35689;SDS011;26977;44.830;-0.674;2022-08-19T04:08:10;18.80;;;7.28;;
35689;SDS011;26977;44.830;-0.674;2022-08-19T04:10:36;19.17;;;7.45;;
35689;SDS011;26977;44.830;-0.674;2022-08-19T04:13:03;17.20;;;7.72;;
35689;SDS011;26977;44.830;-0.674;2022-08-19T04:15:30;15.65;;;7.80;;
35689;SDS011;26977;44.830;-0.674;2022-08-19T04:18:00;15.65;;;8.00;;
35689;SDS011;26977;44.830;-0.674;2022-08-19T04:20:26;18.98;;;7.68;;
35689;SDS011;26977;44.830;-0.674;2022-08-19T04:22:52;14.57;;;7.50;;
35689;SDS011;26977;44.830;-0.674;2022-08-19T04:25:18;18.85;;;8.25;;
35689;SDS011;26977;44.830;-0.674;2022-08-19T04:27:43;17.80;;;8.00;;
35689;SDS011;26977;44.830;-0.674;2022-08-19T04:30:11;16.23;;;7.95;;
35689;SDS011;26977;44.830;-0.674;2022-08-19T04:32:38;15.55;;;8.02;;
35689;SDS011;26977;44.830;-0.674;2022-08-19T04:35:04;14.57;;;7.93;;
35689;SDS011;26977;44.830;-0.674;2022-08-19T04:37:30;15.30;;;8.48;;
35689;SDS011;26977;44.830;-0.674;2022-08-19T04:39:58;16.30;;;8.80;;
35689;SDS011;26977;44.830;-0.674;2022-08-19T04:42:43;17.38;;;8.07;;
35689;SDS011;26977;44.830;-0.674;2022-08-19T04:45:13;15.05;;;8.38;;
35689;SDS011;26977;44.830;-0.674;2022-08-19T04:47:40;18.10;;;9.23;;
35689;SDS011;26977;44.830;-0.674;2022-08-19T04:50:08;12.73;;;8.00;;
35689;SDS011;26977;44.830;-0.674;2022-08-19T04:52:36;16.88;;;8.95;;
35689;SDS011;26977;44.830;-0.674;2022-08-19T04:55:02;14.75;;;8.40;;
35689;SDS011;26977;44.830;-0.674;2022-08-19T04:57:31;15.80;;;8.50;;
35689;SDS011;26977;44.830;-0.674;2022-08-19T04:59:56;17.73;;;8.90;;
35689;SDS011;26977;44.830;-0.674;2022-08-19T05:02:22;17.80;;;8.13;;
35689;SDS011;26977;44.830;-0.674;2022-08-19T05:04:50;19.88;;;9.23;;
35689;SDS011;26977;44.830;-0.674;2022-08-19T05:07:21;18.90;;;8.90;;
35689;SDS011;26977;44.830;-0.674;2022-08-19T05:09:46;14.63;;;8.32;;
35689;SDS011;26977;44.830;-0.674;2022-08-19T05:12:12;18.83;;;9.15;;
35689;SDS011;26977;44.830;-0.674;2022-08-19T05:14:37;26.50;;;9.00;;
35689;SDS011;26977;44.830;-0.674;2022-08-19T05:17:03;22.98;;;8.63;;
35689;SDS011;26977;44.830;-0.674;2022-08-19T05:19:29;26.55;;;9.15;;
35689;SDS011;26977;44.830;-0.674;2022-08-19T05:22:33;21.73;;;8.43;;
35689;SDS011;26977;44.830;-0.674;2022-08-19T05:25:06;27.88;;;9.00;;
35689;SDS011;26977;44.830;-0.674;2022-08-19T05:27:34;22.02;;;9.10;;
35689;SDS011;26977;44.830;-0.674;2022-08-19T05:30:00;21.88;;;8.88;;
35689;SDS011;26977;44.830;-0.674;2022-08-19T05:32:26;17.98;;;8.98;;
35689;SDS011;26977;44.830;-0.674;2022-08-19T05:34:53;23.23;;;9.32;;
35689;SDS011;26977;44.830;-0.674;2022-08-19T05:37:18;25.42;;;9.93;;
35689;SDS011;26977;44.830;-0.674;2022-08-19T05:39:44;19.80;;;10.00;;
35689;SDS011;26977;44.830;-0.674;2022-08-19T05:42:10;18.42;;;9.88;;
35689;SDS011;26977;44.830;-0.674;2022-08-19T05:44:38;20.05;;;9.35;;
35689;SDS011;26977;44.830;-0.674;2022-08-19T05:47:08;18.45;;;10.13;;
35689;SDS011;26977;44.830;-0.674;2022-08-19T05:49:35;18.83;;;9.77;;
35689;SDS011;26977;44.830;-0.674;2022-08-19T05:52:06;20.88;;;9.35;;
35689;SDS011;26977;44.830;-0.674;2022-08-19T05:54:36;22.60;;;10.63;;
35689;SDS011;26977;44.830;-0.674;2022-08-19T05:57:05;18.60;;;9.45;;
35689;SDS011;26977;44.830;-0.674;2022-08-19T05:59:31;16.98;;;9.85;;
35689;SDS011;26977;44.830;-0.674;2022-08-19T06:01:57;21.60;;;9.57;;
35689;SDS011;26977;44.830;-0.674;2022-08-19T06:04:25;25.15;;;9.52;;
35689;SDS011;26977;44.830;-0.674;2022-08-19T06:06:51;19.83;;;8.40;;
35689;SDS011;26977;44.830;-0.674;2022-08-19T06:09:19;18.65;;;8.50;;
35689;SDS011;26977;44.830;-0.674;2022-08-19T06:11:47;17.33;;;8.60;;
35689;SDS011;26977;44.830;-0.674;2022-08-19T06:14:24;16.02;;;8.70;;
35689;SDS011;26977;44.830;-0.674;2022-08-19T06:16:52;15.93;;;8.43;;
35689;SDS011;26977;44.830;-0.674;2022-08-19T06:19:18;16.83;;;7.70;;
35689;SDS011;26977;44.830;-0.674;2022-08-19T06:21:46;21.10;;;7.95;;
35689;SDS011;26977;44.830;-0.674;2022-08-19T06:24:14;20.40;;;7.75;;
35689;SDS011;26977;44.830;-0.674;2022-08-19T06:26:44;21.83;;;7.18;;
35689;SDS011;26977;44.830;-0.674;2022-08-19T06:29:11;23.50;;;7.70;;
35689;SDS011;26977;44.830;-0.674;2022-08-19T06:31:41;15.60;;;6.80;;
35689;SDS011;26977;44.830;-0.674;2022-08-19T06:34:09;17.52;;;6.97;;
35689;SDS011;26977;44.830;-0.674;2022-08-19T06:36:37;13.45;;;6.32;;
35689;SDS011;26977;44.830;-0.674;2022-08-19T06:39:16;17.77;;;5.55;;
35689;SDS011;26977;44.830;-0.674;2022-08-19T06:41:49;13.27;;;5.88;;
35689;SDS011;26977;44.830;-0.674;2022-08-19T06:44:20;12.15;;;4.93;;
35689;SDS011;26977;44.830;-0.674;2022-08-19T06:46:48;17.20;;;4.93;;
35689;SDS011;26977;44.830;-0.674;2022-08-19T06:49:14;15.15;;;4.75;;
35689;SDS011;26977;44.830;-0.674;2022-08-19T06:51:42;12.77;;;4.68;;
35689;SDS011;26977;44.830;-0.674;2022-08-19T06:54:09;13.88;;;3.85;;
35689;SDS011;26977;44.830;-0.674;2022-08-19T06:56:36;17.10;;;5.55;;
35689;SDS011;26977;44.830;-0.674;2022-08-19T06:59:07;13.48;;;4.60;;
35689;SDS011;26977;44.830;-0.674;2022-08-19T07:01:39;11.38;;;4.45;;
35689;SDS011;26977;44.830;-0.674;2022-08-19T07:04:07;12.63;;;3.70;;
35689;SDS011;26977;44.830;-0.674;2022-08-19T07:06:33;14.35;;;3.55;;
35689;SDS011;26977;44.830;-0.674;2022-08-19T07:09:00;8.45;;;3.42;;
35689;SDS011;26977;44.830;-0.674;2022-08-19T07:11:27;6.10;;;2.78;;
35689;SDS011;26977;44.830;-0.674;2022-08-19T07:13:53;11.23;;;3.67;;
35689;SDS011;26977;44.830;-0.674;2022-08-19T07:16:20;9.00;;;3.35;;
35689;SDS011;26977;44.830;-0.674;2022-08-19T07:18:47;8.93;;;3.13;;
35689;SDS011;26977;44.830;-0.674;2022-08-19T07:21:15;13.13;;;2.85;;
35689;SDS011;26977;44.830;-0.674;2022-08-19T07:23:43;7.68;;;2.80;;
35689;SDS011;26977;44.830;-0.674;2022-08-19T07:26:14;14.82;;;3.55;;
35689;SDS011;26977;44.830;-0.674;2022-08-19T07:28:47;12.30;;;2.92;;
35689;SDS011;26977;44.830;-0.674;2022-08-19T07:31:14;14.88;;;2.97;;
35689;SDS011;26977;44.830;-0.674;2022-08-19T07:33:43;10.95;;;2.58;;
35689;SDS011;26977;44.830;-0.674;2022-08-19T07:36:11;11.93;;;2.58;;
35689;SDS011;26977;44.830;-0.674;2022-08-19T07:38:39;10.27;;;2.80;;
35689;SDS011;26977;44.830;-0.674;2022-08-19T07:41:09;7.28;;;2.00;;
35689;SDS011;26977;44.830;-0.674;2022-08-19T07:43:37;6.80;;;2.15;;
35689;SDS011;26977;44.830;-0.674;2022-08-19T07:46:03;5.63;;;1.83;;
35689;SDS011;26977;44.830;-0.674;2022-08-19T07:48:29;8.00;;;2.35;;
35689;SDS011;26977;44.830;-0.674;2022-08-19T07:50:56;7.80;;;2.20;;
35689;SDS011;26977;44.830;-0.674;2022-08-19T07:53:26;5.82;;;2.13;;
35689;SDS011;26977;44.830;-0.674;2022-08-19T07:55:53;6.45;;;1.90;;
35689;SDS011;26977;44.830;-0.674;2022-08-19T07:58:21;5.90;;;1.85;;
35689;SDS011;26977;44.830;-0.674;2022-08-19T08:00:48;7.15;;;1.55;;
35689;SDS011;26977;44.830;-0.674;2022-08-19T08:03:17;8.95;;;2.20;;
35689;SDS011;26977;44.830;-0.674;2022-08-19T08:05:44;3.05;;;1.42;;
35689;SDS011;26977;44.830;-0.674;2022-08-19T08:08:29;7.03;;;1.60;;
35689;SDS011;26977;44.830;-0.674;2022-08-19T08:11:14;4.25;;;1.25;;
35689;SDS011;26977;44.830;-0.674;2022-08-19T08:13:43;4.88;;;1.70;;
35689;SDS011;26977;44.830;-0.674;2022-08-19T08:16:08;6.28;;;2.03;;
35689;SDS011;26977;44.830;-0.674;2022-08-19T08:18:34;4.18;;;1.33;;
35689;SDS011;26977;44.830;-0.674;2022-08-19T08:21:06;7.43;;;1.50;;
35689;SDS011;26977;44.830;-0.674;2022-08-19T08:23:32;6.75;;;1.50;;
35689;SDS011;26977;44.830;-0.674;2022-08-19T08:25:58;5.35;;;1.48;;
35689;SDS011;26977;44.830;-0.674;2022-08-19T08:28:25;10.30;;;1.60;;
35689;SDS011;26977;44.830;-0.674;2022-08-19T08:30:54;3.33;;;1.23;;
35689;SDS011;26977;44.830;-0.674;2022-08-19T08:33:21;4.38;;;1.60;;
35689;SDS011;26977;44.830;-0.674;2022-08-19T08:35:48;4.15;;;1.70;;
35689;SDS011;26977;44.830;-0.674;2022-08-19T08:38:14;3.28;;;1.48;;
35689;SDS011;26977;44.830;-0.674;2022-08-19T08:40:44;6.25;;;1.67;;
35689;SDS011;26977;44.830;-0.674;2022-08-19T08:43:22;5.97;;;1.70;;
35689;SDS011;26977;44.830;-0.674;2022-08-19T08:48:30;5.57;;;1.60;;
35689;SDS011;26977;44.830;-0.674;2022-08-19T08:51:14;8.50;;;1.65;;
35689;SDS011;26977;44.830;-0.674;2022-08-19T08:53:44;4.85;;;1.45;;
35689;SDS011;26977;44.830;-0.674;2022-08-19T08:56:14;3.85;;;1.20;;
35689;SDS011;26977;44.830;-0.674;2022-08-19T09:01:12;4.32;;;1.45;;
35689;SDS011;26977;44.830;-0.674;2022-08-19T09:03:39;3.80;;;1.48;;
35689;SDS011;26977;44.830;-0.674;2022-08-19T09:06:07;4.35;;;1.45;;
35689;SDS011;26977;44.830;-0.674;2022-08-19T09:09:02;6.05;;;1.48;;
35689;SDS011;26977;44.830;-0.674;2022-08-19T09:16:50;7.90;;;1.52;;
35689;SDS011;26977;44.830;-0.674;2022-08-19T09:19:16;4.38;;;1.30;;
35689;SDS011;26977;44.830;-0.674;2022-08-19T09:21:42;4.72;;;1.40;;
35689;SDS011;26977;44.830;-0.674;2022-08-19T09:24:08;3.40;;;1.30;;
35689;SDS011;26977;44.830;-0.674;2022-08-19T09:26:33;6.60;;;1.95;;
35689;SDS011;26977;44.830;-0.674;2022-08-19T09:29:00;3.75;;;1.40;;
35689;SDS011;26977;44.830;-0.674;2022-08-19T09:31:30;4.50;;;1.38;;
35689;SDS011;26977;44.830;-0.674;2022-08-19T09:33:57;4.28;;;1.38;;
35689;SDS011;26977;44.830;-0.674;2022-08-19T09:36:26;3.38;;;1.42;;
35689;SDS011;26977;44.830;-0.674;2022-08-19T09:38:58;5.57;;;1.20;;
35689;SDS011;26977;44.830;-0.674;2022-08-19T09:41:25;5.15;;;1.50;;
35689;SDS011;26977;44.830;-0.674;2022-08-19T09:43:53;5.07;;;2.20;;
35689;SDS011;26977;44.830;-0.674;2022-08-19T09:46:21;5.45;;;1.65;;
35689;SDS011;26977;44.830;-0.674;2022-08-19T09:48:49;2.58;;;0.88;;
35689;SDS011;26977;44.830;-0.674;2022-08-19T09:51:22;5.72;;;1.38;;
35689;SDS011;26977;44.830;-0.674;2022-08-19T09:53:51;4.78;;;1.42;;
35689;SDS011;26977;44.830;-0.674;2022-08-19T09:56:19;3.72;;;1.17;;
35689;SDS011;26977;44.830;-0.674;2022-08-19T09:58:46;6.55;;;1.40;;
35689;SDS011;26977;44.830;-0.674;2022-08-19T10:01:19;2.92;;;1.17;;
35689;SDS011;26977;44.830;-0.674;2022-08-19T10:03:50;6.50;;;1.40;;
35689;SDS011;26977;44.830;-0.674;2022-08-19T10:06:18;5.68;;;1.15;;
35689;SDS011;26977;44.830;-0.674;2022-08-19T10:08:45;5.68;;;1.33;;
35689;SDS011;26977;44.830;-0.674;2022-08-19T10:11:12;4.65;;;1.10;;
35689;SDS011;26977;44.830;-0.674;2022-08-19T10:13:40;5.30;;;1.40;;
35689;SDS011;26977;44.830;-0.674;2022-08-19T10:16:08;5.95;;;1.80;;
35689;SDS011;26977;44.830;-0.674;2022-08-19T10:18:40;8.05;;;2.28;;
35689;SDS011;26977;44.830;-0.674;2022-08-19T10:21:16;7.85;;;2.17;;
35689;SDS011;26977;44.830;-0.674;2022-08-19T10:24:31;2.47;;;1.17;;
35689;SDS011;26977;44.830;-0.674;2022-08-19T10:26:59;8.05;;;1.63;;
35689;SDS011;26977;44.830;-0.674;2022-08-19T10:29:36;4.32;;;1.30;;
35689;SDS011;26977;44.830;-0.674;2022-08-19T10:32:19;3.42;;;1.10;;
35689;SDS011;26977;44.830;-0.674;2022-08-19T10:34:46;4.47;;;1.17;;
35689;SDS011;26977;44.830;-0.674;2022-08-19T10:37:14;4.03;;;1.13;;
35689;SDS011;26977;44.830;-0.674;2022-08-19T10:39:40;3.15;;;1.00;;
35689;SDS011;26977;44.830;-0.674;2022-08-19T10:42:06;2.25;;;1.08;;
35689;SDS011;26977;44.830;-0.674;2022-08-19T10:44:35;3.25;;;1.02;;
35689;SDS011;26977;44.830;-0.674;2022-08-19T10:47:01;3.55;;;1.10;;
35689;SDS011;26977;44.830;-0.674;2022-08-19T10:49:27;6.00;;;0.90;;
35689;SDS011;26977;44.830;-0.674;2022-08-19T10:51:54;1.75;;;0.82;;
35689;SDS011;26977;44.830;-0.674;2022-08-19T10:54:39;2.33;;;1.02;;
35689;SDS011;26977;44.830;-0.674;2022-08-19T10:57:23;3.67;;;1.20;;
35689;SDS011;26977;44.830;-0.674;2022-08-19T10:59:54;2.72;;;1.10;;
35689;SDS011;26977;44.830;-0.674;2022-08-19T11:02:23;5.43;;;1.23;;
35689;SDS011;26977;44.830;-0.674;2022-08-19T11:04:48;6.72;;;1.30;;
35689;SDS011;26977;44.830;-0.674;2022-08-19T11:07:16;4.13;;;1.30;;
35689;SDS011;26977;44.830;-0.674;2022-08-19T11:09:42;4.82;;;1.60;;
35689;SDS011;26977;44.830;-0.674;2022-08-19T11:12:08;5.95;;;1.33;;
35689;SDS011;26977;44.830;-0.674;2022-08-19T11:14:34;4.10;;;1.42;;
35689;SDS011;26977;44.830;-0.674;2022-08-19T11:17:02;5.13;;;1.60;;
35689;SDS011;26977;44.830;-0.674;2022-08-19T11:19:28;1.88;;;0.90;;
35689;SDS011;26977;44.830;-0.674;2022-08-19T11:21:54;3.95;;;1.00;;
35689;SDS011;26977;44.830;-0.674;2022-08-19T11:24:21;3.25;;;0.95;;
35689;SDS011;26977;44.830;-0.674;2022-08-19T11:26:49;3.90;;;1.10;;
35689;SDS011;26977;44.830;-0.674;2022-08-19T11:29:17;3.38;;;0.85;;
35689;SDS011;26977;44.830;-0.674;2022-08-19T11:31:45;3.63;;;0.88;;
35689;SDS011;26977;44.830;-0.674;2022-08-19T11:34:14;2.58;;;0.88;;
35689;SDS011;26977;44.830;-0.674;2022-08-19T11:36:44;4.05;;;0.90;;
35689;SDS011;26977;44.830;-0.674;2022-08-19T11:39:12;3.17;;;0.68;;
35689;SDS011;26977;44.830;-0.674;2022-08-19T11:41:39;2.28;;;0.82;;
35689;SDS011;26977;44.830;-0.674;2022-08-19T11:44:05;4.32;;;1.05;;
35689;SDS011;26977;44.830;-0.674;2022-08-19T11:46:33;3.65;;;1.20;;
35689;SDS011;26977;44.830;-0.674;2022-08-19T11:49:03;6.57;;;1.52;;
35689;SDS011;26977;44.830;-0.674;2022-08-19T11:51:29;7.15;;;1.52;;
35689;SDS011;26977;44.830;-0.674;2022-08-19T11:53:57;4.55;;;1.15;;
35689;SDS011;26977;44.830;-0.674;2022-08-19T11:56:24;7.07;;;1.35;;
35689;SDS011;26977;44.830;-0.674;2022-08-19T11:58:50;2.97;;;1.35;;
35689;SDS011;26977;44.830;-0.674;2022-08-19T12:01:17;2.42;;;1.08;;
35689;SDS011;26977;44.830;-0.674;2022-08-19T12:03:46;5.28;;;1.13;;
35689;SDS011;26977;44.830;-0.674;2022-08-19T12:06:17;5.20;;;1.20;;
35689;SDS011;26977;44.830;-0.674;2022-08-19T12:08:54;1.70;;;1.10;;
35689;SDS011;26977;44.830;-0.674;2022-08-19T12:11:21;4.35;;;1.20;;
35689;SDS011;26977;44.830;-0.674;2022-08-19T12:13:47;2.90;;;1.08;;
35689;SDS011;26977;44.830;-0.674;2022-08-19T12:16:17;2.92;;;0.80;;
35689;SDS011;26977;44.830;-0.674;2022-08-19T12:18:45;4.50;;;1.00;;
35689;SDS011;26977;44.830;-0.674;2022-08-19T12:21:12;3.17;;;1.23;;
35689;SDS011;26977;44.830;-0.674;2022-08-19T12:23:39;3.30;;;0.93;;
35689;SDS011;26977;44.830;-0.674;2022-08-19T12:26:06;2.70;;;1.00;;
35689;SDS011;26977;44.830;-0.674;2022-08-19T12:28:31;3.17;;;0.65;;
35689;SDS011;26977;44.830;-0.674;2022-08-19T12:30:57;3.53;;;0.95;;
35689;SDS011;26977;44.830;-0.674;2022-08-19T12:33:23;5.57;;;1.00;;
35689;SDS011;26977;44.830;-0.674;2022-08-19T12:35:52;11.20;;;1.40;;
35689;SDS011;26977;44.830;-0.674;2022-08-19T12:38:19;4.05;;;1.20;;
35689;SDS011;26977;44.830;-0.674;2022-08-19T12:40:46;4.03;;;1.42;;
35689;SDS011;26977;44.830;-0.674;2022-08-19T12:43:12;5.25;;;1.70;;
35689;SDS011;26977;44.830;-0.674;2022-08-19T12:45:40;3.97;;;1.58;;
35689;SDS011;26977;44.830;-0.674;2022-08-19T12:48:07;3.75;;;1.70;;
35689;SDS011;26977;44.830;-0.674;2022-08-19T12:50:33;6.18;;;1.50;;
35689;SDS011;26977;44.830;-0.674;2022-08-19T12:52:59;2.55;;;1.40;;
35689;SDS011;26977;44.830;-0.674;2022-08-19T12:55:25;4.38;;;1.20;;
35689;SDS011;26977;44.830;-0.674;2022-08-19T12:57:53;2.92;;;1.10;;
35689;SDS011;26977;44.830;-0.674;2022-08-19T13:00:19;2.72;;;1.20;;
35689;SDS011;26977;44.830;-0.674;2022-08-19T13:02:46;2.67;;;1.00;;
35689;SDS011;26977;44.830;-0.674;2022-08-19T13:05:15;6.43;;;1.10;;
35689;SDS011;26977;44.830;-0.674;2022-08-19T13:07:45;2.70;;;1.00;;
35689;SDS011;26977;44.830;-0.674;2022-08-19T13:10:12;2.72;;;0.90;;
35689;SDS011;26977;44.830;-0.674;2022-08-19T13:12:40;2.58;;;0.90;;
35689;SDS011;26977;44.830;-0.674;2022-08-19T13:15:06;2.15;;;0.80;;
35689;SDS011;26977;44.830;-0.674;2022-08-19T13:17:33;4.03;;;0.93;;
35689;SDS011;26977;44.830;-0.674;2022-08-19T13:19:59;3.33;;;0.90;;
35689;SDS011;26977;44.830;-0.674;2022-08-19T13:22:25;4.30;;;1.05;;
35689;SDS011;26977;44.830;-0.674;2022-08-19T13:24:51;2.42;;;0.80;;
35689;SDS011;26977;44.830;-0.674;2022-08-19T13:27:18;2.58;;;0.65;;
35689;SDS011;26977;44.830;-0.674;2022-08-19T13:29:43;2.22;;;0.60;;
35689;SDS011;26977;44.830;-0.674;2022-08-19T13:32:28;2.50;;;0.70;;
35689;SDS011;26977;44.830;-0.674;2022-08-19T13:35:13;1.23;;;0.40;;
35689;SDS011;26977;44.830;-0.674;2022-08-19T13:37:40;1.10;;;0.60;;
35689;SDS011;26977;44.830;-0.674;2022-08-19T13:40:07;1.70;;;0.50;;
35689;SDS011;26977;44.830;-0.674;2022-08-19T13:42:38;2.42;;;0.80;;
35689;SDS011;26977;44.830;-0.674;2022-08-19T13:45:04;2.25;;;0.60;;
35689;SDS011;26977;44.830;-0.674;2022-08-19T13:47:31;4.78;;;0.90;;
35689;SDS011;26977;44.830;-0.674;2022-08-19T13:49:59;4.25;;;0.70;;
35689;SDS011;26977;44.830;-0.674;2022-08-19T13:52:28;2.45;;;1.00;;
35689;SDS011;26977;44.830;-0.674;2022-08-19T13:54:54;3.05;;;0.60;;
35689;SDS011;26977;44.830;-0.674;2022-08-19T13:57:19;1.48;;;0.77;;
35689;SDS011;26977;44.830;-0.674;2022-08-19T13:59:45;3.45;;;0.93;;
35689;SDS011;26977;44.830;-0.674;2022-08-19T14:02:11;2.33;;;0.95;;
35689;SDS011;26977;44.830;-0.674;2022-08-19T14:04:37;2.08;;;0.88;;
35689;SDS011;26977;44.830;-0.674;2022-08-19T14:07:03;1.52;;;0.70;;
35689;SDS011;26977;44.830;-0.674;2022-08-19T14:09:29;2.25;;;0.75;;
35689;SDS011;26977;44.830;-0.674;2022-08-19T14:11:55;1.40;;;0.65;;
35689;SDS011;26977;44.830;-0.674;2022-08-19T14:14:21;2.53;;;0.73;;
35689;SDS011;26977;44.830;-0.674;2022-08-19T14:16:47;4.35;;;0.90;;
35689;SDS011;26977;44.830;-0.674;2022-08-19T14:19:13;1.25;;;0.60;;
35689;SDS011;26977;44.830;-0.674;2022-08-19T14:21:39;1.70;;;0.57;;
35689;SDS011;26977;44.830;-0.674;2022-08-19T14:24:06;2.35;;;0.70;;
35689;SDS011;26977;44.830;-0.674;2022-08-19T14:26:32;5.00;;;0.80;;
35689;SDS011;26977;44.830;-0.674;2022-08-19T14:28:57;1.83;;;0.60;;
35689;SDS011;26977;44.830;-0.674;2022-08-19T14:31:23;2.28;;;0.57;;
35689;SDS011;26977;44.830;-0.674;2022-08-19T14:33:50;2.20;;;0.50;;
35689;SDS011;26977;44.830;-0.674;2022-08-19T14:36:16;0.88;;;0.38;;
35689;SDS011;26977;44.830;-0.674;2022-08-19T14:38:43;1.88;;;0.88;;
35689;SDS011;26977;44.830;-0.674;2022-08-19T14:41:13;3.33;;;0.70;;
35689;SDS011;26977;44.830;-0.674;2022-08-19T14:43:45;2.58;;;0.60;;
35689;SDS011;26977;44.830;-0.674;2022-08-19T14:46:16;3.33;;;0.90;;
35689;SDS011;26977;44.830;-0.674;2022-08-19T14:48:44;2.37;;;0.70;;